KPPF/PPF METAR and TAF weather

Enter ICAO airport designator
Station Type Date Time Source
KPPF METAR 2021/07/30 06:52 UTC NOAA

KPPF 300652Z AUTO 17003KT 9SM CLR 25/24 A3006 RMK AO2 SLP167 T02500239


Station Type Date Time Source
KPPF Decoded METAR 2021/07/30 06:52 UTC NOAA

PARSONS TRI-CITY AIRPORT, KS, United States (KPPF) 37-20N 95-30W 274M
Jul 30, 2021 - 02:52 AM EDT / 2021.07.30 0652 UTC
Wind: from the S (170 degrees) at 3 MPH (3 KT):0
Visibility: 9 mile(s):0
Sky conditions: clear
Temperature: 77.0 F (25.0 C)
Dew Point: 75.0 F (23.9 C)
Relative Humidity: 93%
Pressure (altimeter): 30.06 in. Hg (1017 hPa)
ob: KPPF 300652Z AUTO 17003KT 9SM CLR 25/24 A3006 RMK AO2 SLP167 T02500239
cycle: 7

Station Type Date Time Source
KPPF TAF UTC NOAA

Error!

Example: see airport list